Data for 09/18/2007

Time Sea-Level Adjusted Pressure Absolute Pressure Temperature Relative Humidity Dew Point   
(mb) (inHg) (mb) (inHg) (C) (F) (%) (C) (F)
00:05 1018 30.06 847 25.01 9.3 48.8 78 5.8 42.4
00:10 1018 30.06 847 25.01 9.2 48.5 80 6 42.8
00:15 1018 30.06 847 25.01 9.1 48.4 81 6 42.7
00:20 1018 30.06 847 25.01 9.3 48.7 80 6.1 42.9
00:25 1018 30.06 847 25.01 9 48.3 84 6.6 43.8
00:30 1018 30.06 847 25.01 8.9 47.9 86 6.7 44.1
00:35 1018 30.06 847 25.01 8.7 47.7 82 5.8 42.5
00:40 1018 30.06 847 25.01 8.6 47.4 85 6.3 43.3
00:45 1018 30.06 847 25.01 8.4 47 90 6.8 44.3
00:50 1018 30.06 847 25.01 8.1 46.6 92 6.9 44.4
00:55 1018 30.06 847 25.01 7.8 46.1 92 6.7 44
01:00 1018 30.06 847 25.01 7.8 46 90 6.3 43.3
01:05 1018 30.06 847 25.01 7.9 46.2 91 6.6 43.9
01:10 1018 30.06 847 25.01 8.2 46.8 91 6.8 44.2
01:15 1018 30.06 847 25.01 8.3 46.9 88 6.4 43.6
01:20 1018 30.06 847 25.01 8.1 46.5 88 6.2 43.1
01:25 1018 30.06 847 25.01 8.1 46.6 90 6.5 43.7
01:30 1018 30.06 847 25.01 8.2 46.8 90 6.7 44
01:35 1018 30.06 847 25.01 8.2 46.7 91 6.9 44.3
01:40 1018 30.06 847 25.01 7.9 46.2 92 6.8 44.2
01:45 1018 30.06 847 25.01 7.8 46.1 92 6.6 44
01:50 1018 30.06 847 25.01 8 46.3 92 6.7 44.1
01:55 1018 30.06 847 25.01 8 46.5 91 6.7 44
02:00 1018 30.06 847 25.01 8.1 46.5 93 7 44.5
02:05 1018 30.06 847 25.01 8.1 46.6 88 6.3 43.4
02:10 1018 30.06 847 25.01 8.3 47 89 6.6 43.9
02:15 1018 30.06 847 25.01 8.5 47.3 89 6.7 44.1
02:20 1018 30.06 847 25.01 8.5 47.3 87 6.5 43.8
02:25 1018 30.06 847 25.01 8.4 47.2 86 6.2 43.2
02:30 1018 30.06 847 25.01 8.5 47.3 86 6.3 43.4
02:35 1018 30.06 847 25.01 8.4 47.1 85 6.1 43
02:40 1018 30.06 847 25.01 8.1 46.7 85 5.9 42.5
02:45 1018 30.06 847 25.01 8.1 46.6 86 5.8 42.5
02:50 1018 30.06 847 25.01 8.1 46.5 85 5.7 42.3
02:55 1018 30.06 847 25.01 7.8 46.1 88 5.9 42.6
03:00 1018 30.06 847 25.01 7.7 45.8 87 5.7 42.3
03:05 1018 30.06 847 25.01 7.7 45.8 88 5.9 42.5
03:10 1018 30.06 847 25.01 7.7 45.8 90 6.1 43
03:15 1018 30.06 847 25.01 7.8 46 90 6.2 43.1
03:20 1018 30.06 847 25.01 7.8 46 90 6.3 43.3
03:25 1018 30.06 847 25.01 7.7 45.8 91 6.3 43.3
03:30 1018 30.06 847 25.01 7.7 45.8 92 6.4 43.5
03:35 1018 30.06 847 25.01 7.7 45.9 92 6.4 43.6
03:40 1018 30.06 847 25.01 7.7 45.9 91 6.3 43.4
03:45 1018 30.06 847 25.01 7.7 45.9 88 5.8 42.5
03:50 1018 30.06 847 25.01 7.8 46 86 5.7 42.2
03:55 1018 30.06 847 25.01 7.9 46.2 84 5.3 41.5
04:00 1018 30.06 847 25.01 8 46.4 86 5.8 42.5
04:05 1018 30.06 847 25.01 8.2 46.7 82 5.4 41.7
04:10 1018 30.06 847 25.01 8.3 47 82 5.4 41.6
04:15 1018 30.06 847 25.01 8.3 46.9 79 4.9 40.9
04:20 1018 30.06 847 25.01 8.2 46.7 81 5.1 41.3
04:25 1018 30.06 847 25.01 8 46.4 82 5.2 41.4
04:30 1018 30.06 847 25.01 7.8 46.1 84 5.3 41.5
04:35 1018 30.06 847 25.01 7.7 45.8 82 4.8 40.7
04:40 1018 30.06 847 25.01 7.6 45.7 81 4.6 40.3
04:45 1018 30.06 847 25.01 7.6 45.6 81 4.6 40.3
04:50 1018 30.06 847 25.01 7.6 45.7 83 4.9 40.9
04:55 1018 30.06 847 25.01 7.5 45.6 87 5.6 42
05:00 1018 30.06 847 25.01 7.2 44.9 89 5.4 41.8
05:05 1018 30.06 847 25.01 6.9 44.5 85 4.6 40.2
05:10 1018 30.06 847 25.01 7.2 44.9 85 4.8 40.6
05:15 1018 30.06 847 25.01 7.2 44.9 84 4.6 40.3
05:20 1018 30.06 847 25.01 6.9 44.4 86 4.7 40.4
05:25 1018 30.06 847 25.01 6.7 44 87 4.6 40.3
05:30 1018 30.06 847 25.01 6.6 43.8 88 4.7 40.5
05:35 1018 30.06 847 25.01 6.4 43.6 88 4.6 40.3
05:40 1018 30.06 847 25.01 6.3 43.3 88 4.5 40.1
05:45 1018 30.06 847 25.01 6.2 43.2 88 4.4 39.8
05:50 1018 30.06 847 25.01 6.1 43 87 4.1 39.3
05:55 1018 30.06 848 25.04 6.2 43.1 87 4.1 39.4
06:00 1018 30.06 848 25.04 6.1 43.1 86 4 39.3
06:05 1018 30.06 848 25.04 6.1 43 87 4 39.3
06:10 1018 30.06 848 25.04 5.9 42.7 87 4 39.2
06:15 1018 30.06 848 25.04 5.7 42.2 89 4 39.1
06:20 1018 30.06 848 25.04 5.4 41.8 86 3.3 38
06:25 1018 30.06 848 25.04 5.6 42 81 2.6 36.7
06:30 1018 30.06 848 25.04 6 42.8 78 2.5 36.5
06:35 1018 30.06 848 25.04 6.2 43.2 78 2.7 36.9
06:40 1018 30.06 848 25.04 6.1 42.9 81 3.1 37.6
06:45 1018 30.06 848 25.04 5.6 42.1 81 2.7 36.8
06:50 1018 30.06 848 25.04 5.3 41.6 84 2.9 37.3
06:55 1018 30.06 848 25.04 5.1 41.1 83 2.5 36.5
07:00 1018 30.06 848 25.04 4.9 40.8 85 2.6 36.7
07:05 1019 30.09 848 25.04 4.8 40.7 86 2.6 36.7
07:10 1019 30.09 848 25.04 4.7 40.4 87 2.6 36.7
07:15 1019 30.09 848 25.04 4.6 40.2 86 2.4 36.4
07:20 1019 30.09 848 25.04 4.4 39.9 86 2.2 36
07:25 1019 30.09 848 25.04 4.1 39.4 83 1.5 34.6
07:30 1019 30.09 848 25.04 4.3 39.7 83 1.7 35
07:35 1019 30.09 848 25.04 4.5 40.1 80 1.4 34.5
07:40 1019 30.09 848 25.04 4.5 40.1 83 1.8 35.3
07:45 1019 30.09 848 25.04 4.4 40 83 1.9 35.3
07:50 1019 30.09 848 25.04 4.5 40 83 1.9 35.4
07:55 1019 30.09 848 25.04 4.5 40.1 84 2 35.6
08:00 1019 30.09 848 25.04 4.7 40.4 83 2 35.6
08:05 1019 30.09 848 25.04 4.7 40.5 83 2.1 35.8
08:10 1019 30.09 848 25.04 4.7 40.5 79 1.5 34.7
08:15 1019 30.09 848 25.04 4.9 40.9 80 1.7 35.1
08:20 1019 30.09 848 25.04 5.1 41.2 80 1.9 35.4
08:25 1019 30.09 848 25.04 5.4 41.6 74 1.1 34.1
08:30 1019 30.09 848 25.04 5.8 42.5 75 1.6 35
08:35 1019 30.09 848 25.04 6.3 43.4 74 2.1 35.7
08:40 1019 30.09 848 25.04 6.7 44.1 75 2.5 36.6
08:45 1019 30.09 848 25.04 7.1 44.9 72 2.5 36.4
08:50 1019 30.09 848 25.04 7.4 45.3 73 2.8 37.1
08:55 1019 30.09 848 25.04 7.6 45.7 75 3.5 38.3
09:00 1019 30.09 848 25.04 7.7 45.8 74 3.4 38.2
09:05 1019 30.09 848 25.04 7.9 46.2 73 3.3 38
09:10 1019 30.09 848 25.04 8.3 47 71 3.5 38.2
09:15 1019 30.09 848 25.04 8.6 47.4 71 3.5 38.4
09:20 1019 30.09 848 25.04 9 48.1 68 3.5 38.2
09:25 1019 30.09 848 25.04 9.3 48.8 67 3.6 38.4
09:30 1019 30.09 848 25.04 9.4 49 67 3.7 38.6
09:35 1019 30.09 848 25.04 9.7 49.5 64 3.4 38.1
09:40 1019 30.09 848 25.04 10.1 50.1 64 3.5 38.4
09:45 1019 30.09 848 25.04 10.2 50.3 60 2.7 36.8
09:50 1019 30.09 848 25.04 10.7 51.2 55 2.1 35.8
09:55 1019 30.09 848 25.04 11.1 51.9 53 2 35.6
10:00 1019 30.09 848 25.04 11 51.8 53 1.8 35.3
10:05 1019 30.09 848 25.04 11.6 52.8 52 2.2 35.9
10:10 1019 30.09 848 25.04 11.7 53.1 54 2.8 37
10:15 1019 30.09 848 25.04 11.6 52.9 53 2.4 36.2
10:20 1019 30.09 848 25.04 11.8 53.3 50 1.9 35.4
10:25 1019 30.09 848 25.04 12.8 55.1 47 1.9 35.4
10:30 1019 30.09 848 25.04 13.3 55.9 45 1.7 35
10:35 1019 30.09 848 25.04 12.8 55 43 0.5 32.9
10:40 1019 30.09 848 25.04 12.6 54.7 45 1 33.7
10:45 1019 30.09 848 25.04 12.5 54.4 43 0.3 32.6
10:50 1019 30.09 848 25.04 12.9 55.3 40 -0.3 31.4
10:55 1019 30.09 848 25.04 12.9 55.2 41 0.2 32.3
11:00 1019 30.09 848 25.04 12.6 54.8 40 -0.7 30.8
11:05 1019 30.09 848 25.04 12.6 54.6 42 0.2 32.3
11:10 1019 30.09 848 25.04 12.2 53.9 44 0.5 32.9
11:15 1019 30.09 848 25.04 12.5 54.5 43 0.2 32.3
11:20 1018 30.06 848 25.04 12.4 54.3 41 -0.5 31.1
11:25 1018 30.06 848 25.04 11.8 53.3 42 -0.6 30.9
11:30 1018 30.06 848 25.04 12.2 54 41 -0.7 30.7
11:35 1018 30.06 848 25.04 12 53.6 35 -2.9 26.9
11:40 1018 30.06 848 25.04 12.4 54.4 38 -1.3 29.7
11:45 1018 30.06 848 25.04 13.4 56.1 37 -1.1 30.1
11:50 1018 30.06 847 25.01 12.9 55.3 38 -0.8 30.5
11:55 1018 30.06 847 25.01 12.4 54.3 40 -0.6 30.9
12:00 1018 30.06 847 25.01 12.3 54.2 38 -1.3 29.6
12:05 1018 30.06 847 25.01 12.8 55.1 38 -1.1 30
12:10 1018 30.06 847 25.01 13.3 55.9 36 -1.6 29.2
12:15 1018 30.06 847 25.01 13.9 57 34 -1.6 29.1
12:20 1018 30.06 847 25.01 14.2 57.6 33 -1.6 29.2
12:25 1018 30.06 847 25.01 14.1 57.4 34 -1.3 29.6
12:30 1018 30.06 847 25.01 14 57.2 34 -1.5 29.3
12:35 1018 30.06 847 25.01 14.7 58.4 33 -1.4 29.6
12:40 1018 30.06 847 25.01 14.4 58 34 -1.2 29.8
12:45 1018 30.06 847 25.01 14.2 57.5 34 -1.5 29.2
12:50 1018 30.06 847 25.01 14.1 57.5 34 -1.5 29.3
12:55 1018 30.06 847 25.01 14.2 57.6 32 -2.1 28.2
13:00 1018 30.06 847 25.01 14.8 58.7 32 -1.8 28.7
13:05 1018 30.06 847 25.01 15.4 59.7 32 -1.3 29.7
13:10 1018 30.06 847 25.01 15.6 60 31 -1.6 29.2
13:15 1018 30.06 847 25.01 15.2 59.3 33 -1 30.3
13:20 1018 30.06 847 25.01 15.1 59.3 32 -1.5 29.2
13:25 1018 30.06 847 25.01 14.9 58.7 32 -1.5 29.2
13:30 1018 30.06 847 25.01 14.8 58.6 31 -2 28.5
13:35 1017 30.03 847 25.01 14.7 58.4 32 -1.7 29
13:40 1017 30.03 847 25.01 14.7 58.5 33 -1.5 29.3
13:45 1017 30.03 847 25.01 15.6 60.1 31 -1.4 29.5
13:50 1017 30.03 846 24.98 14.9 58.8 33 -1.3 29.6
13:55 1017 30.03 847 25.01 14.3 57.7 33 -1.8 28.7
14:00 1017 30.03 846 24.98 14.6 58.2 31 -2.1 28.2
14:05 1017 30.03 846 24.98 14.8 58.6 33 -1.3 29.6
14:10 1017 30.03 846 24.98 15.1 59.2 32 -1.3 29.6
14:15 1017 30.03 846 24.98 14.6 58.3 33 -1.4 29.6
14:20 1017 30.03 846 24.98 14.3 57.7 33 -1.7 29
14:25 1017 30.03 846 24.98 14.6 58.2 33 -1.4 29.5
14:30 1017 30.03 846 24.98 14.7 58.4 32 -1.9 28.6
14:35 1017 30.03 846 24.98 14.7 58.5 33 -1.3 29.7
14:40 1017 30.03 846 24.98 14.7 58.5 32 -1.6 29.2
14:45 1017 30.03 846 24.98 15 58.9 32 -1.5 29.4
14:50 1017 30.03 846 24.98 14.9 58.8 32 -1.6 29.1
14:55 1017 30.03 846 24.98 15 59 32 -1.7 29
15:00 1017 30.03 846 24.98 15.1 59.2 32 -1.4 29.4
15:05 1017 30.03 846 24.98 15.7 60.3 30 -1.7 29
15:10 1017 30.03 846 24.98 16 60.8 30 -1.6 29.1
15:15 1017 30.03 846 24.98 15.5 59.9 30 -2.1 28.2
15:20 1017 30.03 846 24.98 15.9 60.5 30 -1.7 29
15:25 1017 30.03 846 24.98 16.6 61.9 28 -1.9 28.6
15:30 1017 30.03 846 24.98 16.6 61.9 28 -1.8 28.8
15:35 1017 30.03 846 24.98 16.3 61.3 29 -1.6 29.2
15:40 1017 30.03 846 24.98 16.3 61.4 30 -1.4 29.5
15:45 1017 30.03 846 24.98 16.2 61.2 29 -1.6 29.1
15:50 1017 30.03 846 24.98 15.7 60.3 29 -1.9 28.5
15:55 1017 30.03 846 24.98 15.7 60.2 30 -1.7 28.9
16:00 1016 30 846 24.98 16.2 61.2 30 -1.3 29.6
16:05 1016 30 846 24.98 16.1 60.9 29 -1.7 29
16:10 1016 30 846 24.98 16.1 60.9 30 -1.4 29.4
16:15 1016 30 845 24.95 15.9 60.6 29 -1.9 28.6
16:20 1016 30 845 24.95 16 60.7 31 -1 30.2
16:25 1016 30 845 24.95 16.3 61.3 28 -2.1 28.2
16:30 1016 30 845 24.95 16.5 61.7 29 -1.6 29
16:35 1016 30 845 24.95 16.2 61.1 29 -1.6 29.1
16:40 1016 30 845 24.95 16.2 61.2 30 -1.2 29.9
16:45 1016 30 845 24.95 16.4 61.4 30 -1.1 30.1
16:50 1016 30 845 24.95 16.3 61.3 30 -1.1 30
16:55 1016 30 845 24.95 16.7 62.1 30 -1.1 30.1
17:00 1016 30 845 24.95 16.7 62.1 32 0.1 32.1
17:05 1016 30 845 24.95 16.1 61 32 -0.5 31
17:10 1016 30 845 24.95 15.8 60.5 32 -0.9 30.3
17:15 1016 30 845 24.95 15.7 60.3 33 -0.6 30.9
17:20 1016 30 845 24.95 15.7 60.3 33 -0.5 31.1
17:25 1016 30 845 24.95 15.6 60.1 35 0.1 32.2
17:30 1016 30 845 24.95 15.5 59.8 36 0.5 32.8
17:35 1016 30 845 24.95 15.2 59.4 35 -0.1 31.7
17:40 1016 30 845 24.95 15.1 59.2 35 -0.2 31.7
17:45 1016 30 845 24.95 15.1 59.2 37 0.5 32.9
17:50 1016 30 845 24.95 15.1 59.1 37 0.5 32.9
17:55 1016 30 845 24.95 15.2 59.3 37 0.5 33
18:00 1015 29.97 845 24.95 15.2 59.4 36 0.3 32.6
18:05 1015 29.97 845 24.95 15.2 59.3 35 0.1 32.2
18:10 1015 29.97 845 24.95 15.1 59.2 36 0.4 32.7
18:15 1015 29.97 845 24.95 15.2 59.3 35 0 32
18:20 1015 29.97 844 24.92 15.1 59.2 36 0.1 32.2
18:25 1015 29.97 844 24.92 15 59 36 -0 32
18:30 1015 29.97 844 24.92 14.9 58.7 36 -0.1 31.8
18:35 1015 29.97 844 24.92 14.7 58.5 34 -0.8 30.5
18:40 1015 29.97 844 24.92 14.7 58.5 35 -0.6 30.9
18:45 1015 29.97 844 24.92 14.7 58.4 34 -0.9 30.3
18:50 1015 29.97 844 24.92 14.6 58.3 35 -0.8 30.6
18:55 1015 29.97 844 24.92 14.5 58.1 35 -0.8 30.6
19:00 1015 29.97 844 24.92 14.4 57.9 34 -1.1 29.9
19:05 1015 29.97 844 24.92 14.4 57.8 34 -1 30.1
19:10 1015 29.97 844 24.92 14.3 57.7 33 -1.5 29.2
19:15 1015 29.97 844 24.92 14.3 57.7 33 -1.5 29.3
19:20 1015 29.97 844 24.92 14.2 57.6 34 -1.5 29.3
19:25 1015 29.97 844 24.92 14.1 57.4 34 -1.4 29.5
19:30 1015 29.97 844 24.92 13.9 57.1 35 -1.1 30
19:35 1015 29.97 844 24.92 13.7 56.6 37 -0.8 30.6
19:40 1015 29.97 844 24.92 13.4 56.2 39 -0.3 31.4
19:45 1015 29.97 844 24.92 13.3 55.9 40 -0 32
19:50 1015 29.97 844 24.92 13.1 55.7 41 0.1 32.3
19:55 1015 29.97 844 24.92 12.9 55.3 42 0.5 32.9
20:00 1015 29.97 845 24.95 12.8 55 41 -0.2 31.6
20:05 1015 29.97 845 24.95 12.6 54.8 41 -0.3 31.4
20:10 1016 30 845 24.95 12.5 54.5 41 -0.3 31.5
20:15 1016 30 845 24.95 12.4 54.4 42 -0.2 31.7
20:20 1016 30 845 24.95 12.6 54.8 42 0.1 32.2
20:25 1016 30 845 24.95 12.7 54.8 43 0.4 32.8
20:30 1016 30 845 24.95 12.5 54.5 44 0.8 33.4
20:35 1016 30 845 24.95 12.2 53.9 46 0.9 33.6
20:40 1016 30 845 24.95 12 53.6 47 1.1 34
20:45 1016 30 845 24.95 11.9 53.4 47 1 33.8
20:50 1016 30 845 24.95 12 53.5 48 1.3 34.3
20:55 1015 29.97 845 24.95 11.9 53.4 47 0.9 33.6
21:00 1016 30 845 24.95 12 53.6 47 1.1 34
21:05 1015 29.97 845 24.95 11.9 53.5 46 0.9 33.6
21:10 1015 29.97 845 24.95 12 53.5 47 0.9 33.7
21:15 1015 29.97 845 24.95 12 53.5 46 0.7 33.2
21:20 1016 30 845 24.95 12.1 53.7 46 0.8 33.5
21:25 1016 30 845 24.95 12.1 53.7 46 0.9 33.6
21:30 1016 30 845 24.95 12 53.7 45 0.7 33.2
21:35 1016 30 845 24.95 12.2 53.9 47 1.2 34.1
21:40 1016 30 845 24.95 11.7 53 48 1.1 33.9
21:45 1016 30 845 24.95 11.9 53.3 47 1 33.8
21:50 1016 30 845 24.95 11.7 53.1 50 1.8 35.2
21:55 1016 30 845 24.95 11.3 52.4 53 2.1 35.7
22:00 1016 30 845 24.95 10.9 51.6 57 2.7 36.9
22:05 1016 30 845 24.95 10.4 50.7 59 2.9 37.2
22:10 1016 30 846 24.98 10 49.9 61 2.9 37.3
22:15 1016 30 846 24.98 9.7 49.5 63 3 37.4
22:20 1016 30 846 24.98 8.6 47.5 70 3.4 38.2
22:25 1016 30 846 24.98 7.9 46.1 72 3.1 37.6
22:30 1016 30 846 24.98 7.6 45.7 73 3 37.5
22:35 1017 30.03 846 24.98 7.8 46 72 3 37.4
22:40 1017 30.03 846 24.98 8 46.4 71 3 37.5
22:45 1017 30.03 846 24.98 8.1 46.6 70 3 37.4
22:50 1017 30.03 846 24.98 8.3 47 69 3.1 37.5
22:55 1017 30.03 846 24.98 8.5 47.3 70 3.4 38.1
23:00 1017 30.03 846 24.98 8.5 47.3 70 3.4 38
23:05 1017 30.03 846 24.98 8.4 47 71 3.5 38.3
23:10 1017 30.03 846 24.98 8.4 47.1 68 2.9 37.2
23:15 1017 30.03 846 24.98 8.6 47.5 69 3.2 37.7
23:20 1017 30.03 847 25.01 8.7 47.7 67 2.9 37.2
23:25 1018 30.06 847 25.01 9 48.2 68 3.4 38.2
23:30 1017 30.03 847 25.01 9 48.2 70 3.8 38.8
23:35 1017 30.03 847 25.01 9 48.1 71 4 39.2
23:40 1017 30.03 847 25.01 8.9 48 72 4.2 39.6
23:45 1017 30.03 847 25.01 8.8 47.8 73 4.2 39.6
23:50 1018 30.06 847 25.01 8.7 47.7 73 4.2 39.5
23:55 1018 30.06 847 25.01 8.7 47.7 73 4.3 39.7
24:00 1018 30.06 847 25.01 8.4 47.2 77 4.6 40.3